Time;durP1;ratioP1;P1;durP2;ratioP2;P2;SDS_P1;SDS_P2;PMS_P1;PMS_P2;Temp;Humidity;BMP_temperature;BMP_pressure;BME280_temperature;BME280_humidity;BME280_pressure;Samples;Min_cycle;Max_cycle;Signal;HPM_P1;HPM_P2
2023/05/05 00:00:20;;;;;;;1999.90;999.90;;;15.60;99.90;;;;;;5054617;28;20029;-71
2023/05/05 00:02:47;;;;;;;1999.90;999.90;;;15.60;99.90;;;;;;5054751;28;20044;-80
2023/05/05 00:05:13;;;;;;;1999.90;999.90;;;15.60;99.90;;;;;;5053698;28;20415;-79
2023/05/05 00:07:39;;;;;;;1999.90;999.90;;;15.50;99.90;;;;;;5054221;28;20060;-79
2023/05/05 00:10:05;;;;;;;1999.90;999.90;;;15.50;99.90;;;;;;5054625;28;20029;-79
2023/05/05 00:12:31;;;;;;;1999.90;999.90;;;15.40;99.90;;;;;;5054511;28;20018;-72
2023/05/05 00:14:57;;;;;;;1999.90;999.90;;;15.20;99.90;;;;;;5051316;28;20048;-71
2023/05/05 00:17:22;;;;;;;1999.90;999.90;;;15.10;99.90;;;;;;5034395;28;20022;-71
2023/05/05 00:19:48;;;;;;;1999.90;999.90;;;15.20;99.90;;;;;;5034133;28;20034;-72
2023/05/05 00:22:13;;;;;;;1999.90;999.90;;;15.10;99.90;;;;;;5034254;28;20041;-79
2023/05/05 00:24:39;;;;;;;1999.90;999.90;;;14.90;99.90;;;;;;5034132;28;20441;-79
2023/05/05 00:27:05;;;;;;;1999.90;999.90;;;14.70;99.90;;;;;;5034315;28;20079;-71
2023/05/05 00:29:31;;;;;;;1999.90;999.90;;;14.50;99.90;;;;;;5034418;28;20026;-70
2023/05/05 00:31:56;;;;;;;1999.90;999.90;;;14.40;99.90;;;;;;5033802;28;20032;-70
2023/05/05 00:34:22;;;;;;;1999.90;999.90;;;14.40;99.90;;;;;;5034333;28;20044;-71
2023/05/05 00:36:48;;;;;;;1999.90;999.90;;;14.30;99.90;;;;;;5033883;28;20100;-78
2023/05/05 00:39:14;;;;;;;1999.90;999.90;;;14.20;99.90;;;;;;5034260;28;20112;-70
2023/05/05 00:41:41;;;;;;;1999.90;999.90;;;14.20;99.90;;;;;;5034028;28;20028;-70
2023/05/05 00:44:07;;;;;;;1999.90;999.90;;;14.20;99.90;;;;;;5035744;28;20034;-71
2023/05/05 00:46:34;;;;;;;1999.90;999.90;;;14.20;99.90;;;;;;5053567;28;20392;-78
2023/05/05 00:49:00;;;;;;;1999.90;999.90;;;14.30;99.90;;;;;;5052886;28;20029;-79
2023/05/05 00:51:27;;;;;;;1999.90;999.90;;;14.30;99.90;;;;;;5053162;28;20096;-78
2023/05/05 00:53:53;;;;;;;1999.90;999.90;;;14.30;99.90;;;;;;5053332;28;20052;-71
2023/05/05 00:56:20;;;;;;;1999.90;999.90;;;14.40;99.90;;;;;;5053569;28;20013;-79
2023/05/05 00:58:47;;;;;;;1999.90;999.90;;;14.40;99.90;;;;;;5053358;28;20025;-71
2023/05/05 01:01:14;;;;;;;1999.90;999.90;;;14.40;99.90;;;;;;5053336;28;20476;-77
2023/05/05 01:03:40;;;;;;;1999.90;999.90;;;14.40;99.90;;;;;;5053577;28;20025;-79
2023/05/05 01:06:37;;;;;;;1999.90;999.90;;;14.30;99.90;;;;;;5052530;28;20029;-71
2023/05/05 01:09:33;;;;;;;1999.90;999.90;;;14.30;99.90;;;;;;5052993;28;20372;-72
2023/05/05 01:12:16;;;;;;;1999.90;999.90;;;14.10;99.90;;;;;;5015821;28;20376;-78
2023/05/05 01:14:51;;;;;;;1999.90;999.90;;;14.10;99.90;;;;;;5052248;28;20099;-78
2023/05/05 01:17:19;;;;;;;1999.90;999.90;;;14.00;99.90;;;;;;5033421;28;20164;-71
2023/05/05 01:19:56;;;;;;;1999.90;999.90;;;14.00;99.90;;;;;;5032423;28;20657;-72
2023/05/05 01:22:33;;;;;;;1999.90;999.90;;;13.90;99.90;;;;;;5033148;28;20041;-71
2023/05/05 01:25:24;;;;;;;1999.90;999.90;;;13.80;99.90;;;;;;5033208;28;20068;-81
2023/05/05 01:28:08;;;;;;;1999.90;999.90;;;13.80;99.90;;;;;;5033163;28;20033;-72
2023/05/05 01:30:38;;;;;;;1999.90;999.90;;;13.80;99.90;;;;;;5033209;28;20072;-72
2023/05/05 01:33:07;;;;;;;1999.90;999.90;;;13.90;99.90;;;;;;5046159;28;20064;-72
2023/05/05 01:35:40;;;;;;;1999.90;999.90;;;13.90;99.90;;;;;;5052874;28;20021;-72
2023/05/05 01:38:14;;;;;;;1999.90;999.90;;;13.80;99.90;;;;;;5052487;28;20021;-80
2023/05/05 01:40:47;;;;;;;1999.90;999.90;;;13.80;99.90;;;;;;5053093;28;20033;-80
2023/05/05 01:43:16;;;;;;;1999.90;999.90;;;13.80;99.90;;;;;;5052861;28;20021;-79
2023/05/05 01:45:44;;;;;;;1999.90;999.90;;;13.80;99.90;;;;;;5052684;28;20541;-71
2023/05/05 01:48:11;;;;;;;1999.90;999.90;;;13.70;99.90;;;;;;5052480;28;20029;-71
2023/05/05 01:50:42;;;;;;;1999.90;999.90;;;13.80;99.90;;;;;;5052430;28;20013;-79
2023/05/05 01:53:09;;;;;;;1999.90;999.90;;;13.80;99.90;;;;;;5052444;28;20088;-78
2023/05/05 01:55:37;;;;;;;1999.90;999.90;;;13.70;99.90;;;;;;5052955;28;20037;-79
2023/05/05 01:58:04;;;;;;;1999.90;999.90;;;13.80;99.90;;;;;;5034719;28;20029;-71
2023/05/05 02:00:32;;;;;;;1999.90;999.90;;;13.80;99.90;;;;;;5052499;28;20525;-70
2023/05/05 02:02:59;;;;;;;1999.90;999.90;;;13.80;99.90;;;;;;5056587;28;20028;-77
2023/05/05 02:05:25;;;;;;;1999.90;999.90;;;13.80;99.90;;;;;;5055993;28;20066;-70
2023/05/05 02:07:55;;;;;;;1999.90;999.90;;;13.80;99.90;;;;;;5056592;28;20021;-78
2023/05/05 02:10:21;;;;;;;1999.90;999.90;;;13.80;99.90;;;;;;5056568;28;20550;-70
2023/05/05 02:12:49;;;;;;;1999.90;999.90;;;13.90;99.90;;;;;;5056724;28;20057;-70
2023/05/05 02:15:15;;;;;;;1999.90;999.90;;;13.90;99.90;;;;;;5051171;28;20025;-77
2023/05/05 02:17:42;;;;;;;1999.90;999.90;;;13.80;99.90;;;;;;5036919;28;20028;-77
2023/05/05 02:20:11;;;;;;;1999.90;999.90;;;13.90;99.90;;;;;;5036837;28;20029;-77
2023/05/05 02:22:37;;;;;;;1999.90;999.90;;;13.90;99.90;;;;;;5036441;28;20056;-78
2023/05/05 02:25:03;;;;;;;1999.90;999.90;;;13.90;99.90;;;;;;5036230;28;20449;-70
2023/05/05 02:27:32;;;;;;;1999.90;999.90;;;13.80;99.90;;;;;;5036779;28;20027;-71
2023/05/05 02:30:03;;;;;;;1999.90;999.90;;;13.80;99.90;;;;;;5036650;28;20029;-72
2023/05/05 02:32:39;;;;;;;1999.90;999.90;;;13.80;99.90;;;;;;5035939;28;20372;-79
2023/05/05 02:35:23;;;;;;;1999.90;999.90;;;13.80;99.90;;;;;;5036535;28;20038;-71
2023/05/05 02:38:04;;;;;;;1999.90;999.90;;;13.90;99.90;;;;;;5035139;28;20033;-71
2023/05/05 02:40:33;;;;;;;1999.90;999.90;;;13.90;99.90;;;;;;5036507;28;20440;-70
2023/05/05 02:43:06;;;;;;;1999.90;999.90;;;13.90;99.90;;;;;;5036195;28;20431;-78
2023/05/05 02:45:32;;;;;;;1999.90;999.90;;;13.90;99.90;;;;;;5049930;28;20107;-78
2023/05/05 02:48:02;;;;;;;1999.90;999.90;;;13.90;99.90;;;;;;5055681;28;20096;-78
2023/05/05 02:50:29;;;;;;;1999.90;999.90;;;13.90;99.90;;;;;;5055803;28;20070;-70
2023/05/05 02:52:56;;;;;;;1999.90;999.90;;;13.90;99.90;;;;;;5055654;28;20041;-71
2023/05/05 02:55:21;;;;;;;1999.90;999.90;;;13.90;99.90;;;;;;5055863;28;20476;-78
2023/05/05 02:58:02;;;;;;;1999.90;999.90;;;14.00;99.90;;;;;;5056104;28;20025;-78
2023/05/05 03:00:45;;;;;;;1999.90;999.90;;;14.00;99.90;;;;;;5055622;28;20057;-78
2023/05/05 03:03:35;;;;;;;1999.90;999.90;;;14.10;99.90;;;;;;5056031;28;20028;-71
2023/05/05 03:06:16;;;;;;;1999.90;999.90;;;14.10;99.90;;;;;;5055087;28;20440;-70
2023/05/05 03:09:19;;;;;;;1999.90;999.90;;;14.10;99.90;;;;;;5055360;28;20064;-78
2023/05/05 03:11:48;;;;;;;1999.90;999.90;;;14.10;99.90;;;;;;4974791;28;20049;-70
2023/05/05 03:14:19;;;;;;;1999.90;999.90;;;14.10;99.90;;;;;;4973773;28;20077;-71
2023/05/05 03:16:46;;;;;;;1999.90;999.90;;;14.10;99.90;;;;;;4974279;28;20062;-71
2023/05/05 03:19:15;;;;;;;1999.90;999.90;;;14.10;99.90;;;;;;4974380;28;20046;-78
2023/05/05 03:21:41;;;;;;;1999.90;999.90;;;14.10;99.90;;;;;;4974691;28;20054;-78
2023/05/05 03:24:20;;;;;;;1999.90;999.90;;;14.00;99.90;;;;;;4974278;28;20093;-78
2023/05/05 03:26:47;;;;;;;1999.90;999.90;;;14.00;99.90;;;;;;4974075;28;20067;-71
2023/05/05 03:29:13;;;;;;;1999.90;999.90;;;14.00;99.90;;;;;;4974666;28;20549;-71
2023/05/05 03:31:39;;;;;;;1999.90;999.90;;;13.90;99.90;;;;;;4974476;28;20022;-70
2023/05/05 03:34:06;;;;;;;1999.90;999.90;;;13.90;99.90;;;;;;4974523;28;20488;-77
2023/05/05 03:36:31;;;;;;;1999.90;999.90;;;13.90;99.90;;;;;;4974335;28;20034;-78
2023/05/05 03:38:57;;;;;;;1999.90;999.90;;;13.90;99.90;;;;;;4973719;28;20042;-79
2023/05/05 03:41:24;;;;;;;1999.90;999.90;;;14.00;99.90;;;;;;4974581;28;20031;-71
2023/05/05 03:43:50;;;;;;;1999.90;999.90;;;14.00;99.90;;;;;;4974190;28;20441;-71
2023/05/05 03:46:16;;;;;;;1999.90;999.90;;;14.10;99.90;;;;;;5054490;28;20059;-79
2023/05/05 03:48:42;;;;;;;1999.90;999.90;;;14.10;99.90;;;;;;5065590;28;20480;-78
2023/05/05 03:51:08;;;;;;;1999.90;999.90;;;14.00;99.90;;;;;;5054862;28;20029;-71
2023/05/05 03:53:34;;;;;;;1999.90;999.90;;;14.10;99.90;;;;;;5054663;28;20049;-78
2023/05/05 03:56:00;;;;;;;1999.90;999.90;;;14.10;99.90;;;;;;5054750;28;20024;-71
2023/05/05 03:58:26;;;;;;;1999.90;999.90;;;14.10;99.90;;;;;;5054756;28;20111;-71
2023/05/05 04:00:51;;;;;;;1999.90;999.90;;;14.00;99.90;;;;;;5054657;28;20025;-78
2023/05/05 04:03:17;;;;;;;1999.90;999.90;;;13.90;99.90;;;;;;5054659;28;20071;-78
2023/05/05 04:05:42;;;;;;;1999.90;999.90;;;14.00;99.90;;;;;;5054709;28;20388;-72
2023/05/05 04:08:08;;;;;;;1999.90;999.90;;;14.00;99.90;;;;;;5035614;28;20029;-71
2023/05/05 04:10:34;;;;;;;1999.90;999.90;;;14.00;99.90;;;;;;5054352;28;20045;-71
2023/05/05 04:13:00;;;;;;;1999.90;999.90;;;14.00;99.90;;;;;;5054396;28;20556;-79
2023/05/05 04:15:25;;;;;;;1999.90;999.90;;;14.00;99.90;;;;;;5047252;28;20029;-79
2023/05/05 04:17:51;;;;;;;1999.90;999.90;;;14.00;99.90;;;;;;5034202;28;20033;-79
2023/05/05 04:20:17;;;;;;;1999.90;999.90;;;14.10;99.90;;;;;;5034005;28;20044;-71
2023/05/05 04:22:42;;;;;;;1999.90;999.90;;;14.10;99.90;;;;;;5034234;28;20040;-78
2023/05/05 04:25:11;;;;;;;1999.90;999.90;;;14.10;99.90;;;;;;5034226;28;20029;-71
2023/05/05 04:27:37;;;;;;;1999.90;999.90;;;14.10;99.90;;;;;;5034118;28;20026;-79
2023/05/05 04:30:03;;;;;;;1999.90;999.90;;;14.10;99.90;;;;;;5034204;28;20022;-72
2023/05/05 04:32:28;;;;;;;1999.90;999.90;;;14.10;99.90;;;;;;5034376;28;20038;-79
2023/05/05 04:34:55;;;;;;;1999.90;999.90;;;14.10;99.90;;;;;;5034156;28;20397;-71
2023/05/05 04:37:20;;;;;;;1999.90;999.90;;;14.10;99.90;;;;;;5034036;28;20026;-71
2023/05/05 04:39:46;;;;;;;1999.90;999.90;;;14.10;99.90;;;;;;5033842;28;20032;-72
2023/05/05 04:42:11;;;;;;;1999.90;999.90;;;14.10;99.90;;;;;;5034207;28;20489;-79
2023/05/05 04:44:37;;;;;;;1999.90;999.90;;;14.10;99.90;;;;;;5049668;28;20055;-72
2023/05/05 04:47:03;;;;;;;1999.90;999.90;;;14.20;99.90;;;;;;5053879;28;20033;-71
2023/05/05 04:49:29;;;;;;;1999.90;999.90;;;14.20;99.90;;;;;;5053622;28;20028;-72
2023/05/05 04:51:55;;;;;;;1999.90;999.90;;;14.20;99.90;;;;;;5053421;28;20045;-79
2023/05/05 04:54:20;;;;;;;1999.90;999.90;;;14.20;99.90;;;;;;5053331;28;20549;-79
2023/05/05 04:56:46;;;;;;;1999.90;999.90;;;14.20;99.90;;;;;;5050742;28;20044;-79
2023/05/05 04:59:12;;;;;;;1999.90;999.90;;;14.20;99.90;;;;;;5053453;28;20028;-72
2023/05/05 05:01:38;;;;;;;1999.90;999.90;;;14.30;99.90;;;;;;5069878;28;20404;-72
2023/05/05 05:04:04;;;;;;;1999.90;999.90;;;14.30;99.90;;;;;;5073076;28;20032;-72
2023/05/05 05:06:30;;;;;;;1999.90;999.90;;;14.30;99.90;;;;;;5073013;28;20487;-79
2023/05/05 05:08:56;;;;;;;1999.90;999.90;;;14.30;99.90;;;;;;5058661;28;20013;-79
2023/05/05 05:11:22;;;;;;;1999.90;999.90;;;14.30;99.90;;;;;;5053303;28;20033;-80
2023/05/05 05:13:48;;;;;;;1999.90;999.90;;;14.30;99.90;;;;;;5053154;28;20021;-71
2023/05/05 05:16:14;;;;;;;1999.90;999.90;;;14.30;99.90;;;;;;5039531;28;20034;-71
2023/05/05 05:18:40;;;;;;;1999.90;999.90;;;14.30;99.90;;;;;;5036586;28;20029;-79
2023/05/05 05:21:06;;;;;;;1999.90;999.90;;;14.30;99.90;;;;;;5052257;28;20033;-71
2023/05/05 05:23:32;;;;;;;1999.90;999.90;;;14.30;99.90;;;;;;5053091;28;20025;-79
2023/05/05 05:25:57;;;;;;;1999.90;999.90;;;14.30;99.90;;;;;;5052692;28;20075;-72
2023/05/05 05:28:23;;;;;;;1999.90;999.90;;;14.30;99.90;;;;;;5053316;28;20392;-71
2023/05/05 05:30:49;;;;;;;1999.90;999.90;;;14.40;99.90;;;;;;5072535;28;20111;-79
2023/05/05 05:33:15;;;;;;;1999.90;999.90;;;14.40;99.90;;;;;;5067149;28;20033;-79
2023/05/05 05:35:40;;;;;;;1999.90;999.90;;;14.40;99.90;;;;;;5062694;28;20025;-80
2023/05/05 05:38:06;;;;;;;1999.90;999.90;;;14.40;99.90;;;;;;5056778;28;20060;-79
2023/05/05 05:40:31;;;;;;;1999.90;999.90;;;14.40;99.90;;;;;;5071944;28;20039;-72
2023/05/05 05:42:57;;;;;;;1999.90;999.90;;;14.40;99.90;;;;;;5072264;28;20021;-80
2023/05/05 05:45:23;;;;;;;1999.90;999.90;;;14.40;99.90;;;;;;5059591;28;20029;-71
2023/05/05 05:47:48;;;;;;;1999.90;999.90;;;14.50;99.90;;;;;;5053463;28;20495;-79
2023/05/05 05:50:14;;;;;;;1999.90;999.90;;;14.50;99.90;;;;;;5059323;28;20017;-79
2023/05/05 05:52:40;;;;;;;1999.90;999.90;;;14.50;99.90;;;;;;5037641;28;20049;-72
2023/05/05 05:55:06;;;;;;;1999.90;999.90;;;14.50;99.90;;;;;;5050646;28;20071;-72
2023/05/05 05:57:32;;;;;;;1999.90;999.90;;;14.50;99.90;;;;;;5052068;28;20021;-80
2023/05/05 05:59:57;;;;;;;1999.90;999.90;;;14.50;99.90;;;;;;5069840;28;20039;-71
2023/05/05 06:02:25;;;;;;;1999.90;999.90;;;14.40;99.90;;;;;;5069862;28;20033;-80
2023/05/05 06:04:51;;;;;;;1999.90;999.90;;;14.40;99.90;;;;;;5048984;28;20111;-80
2023/05/05 06:07:16;;;;;;;1999.90;999.90;;;14.40;99.90;;;;;;5050076;28;20453;-71
2023/05/05 06:09:42;;;;;;;1999.90;999.90;;;14.40;99.90;;;;;;5030524;28;20040;-72
2023/05/05 06:12:08;;;;;;;1999.90;999.90;;;14.50;99.90;;;;;;5049024;28;20544;-79
2023/05/05 06:14:33;;;;;;;1999.90;999.90;;;14.50;99.90;;;;;;5048491;28;20013;-72
2023/05/05 06:16:59;;;;;;;1999.90;999.90;;;14.50;99.90;;;;;;5047344;28;20116;-79
2023/05/05 06:19:25;;;;;;;1999.90;999.90;;;14.50;99.90;;;;;;5066208;28;20024;-72
2023/05/05 06:21:50;;;;;;;1999.90;999.90;;;14.50;99.90;;;;;;5045558;28;20071;-71
2023/05/05 06:24:16;;;;;;;1999.90;999.90;;;14.60;99.90;;;;;;5050960;28;20036;-71
2023/05/05 06:26:41;;;;;;;1999.90;999.90;;;14.70;99.90;;;;;;5048494;28;20500;-75
2023/05/05 06:29:07;;;;;;;1999.90;999.90;;;14.80;99.90;;;;;;5049038;28;20017;-79
2023/05/05 06:31:33;;;;;;;1999.90;999.90;;;14.90;99.90;;;;;;5048578;28;20028;-71
2023/05/05 06:33:58;;;;;;;1999.90;999.90;;;14.90;99.90;;;;;;5049465;28;20053;-71
2023/05/05 06:36:24;;;;;;;1999.90;999.90;;;14.90;99.90;;;;;;5061503;28;20031;-71
2023/05/05 06:38:50;;;;;;;1999.90;999.90;;;15.00;99.90;;;;;;5057824;28;20047;-80
2023/05/05 06:41:16;;;;;;;1999.90;999.90;;;15.00;99.90;;;;;;5048965;28;20120;-79
2023/05/05 06:43:43;;;;;;;1999.90;999.90;;;15.10;99.90;;;;;;5049128;28;20017;-71
2023/05/05 06:46:09;;;;;;;1999.90;999.90;;;15.00;99.90;;;;;;5048632;28;20107;-71
2023/05/05 06:48:35;;;;;;;1999.90;999.90;;;15.00;99.90;;;;;;5049815;28;20124;-72
2023/05/05 06:51:01;;;;;;;1999.90;999.90;;;14.90;99.90;;;;;;5046963;28;20032;-78
2023/05/05 06:53:27;;;;;;;1999.90;999.90;;;14.90;99.90;;;;;;5043435;28;20041;-78
2023/05/05 06:55:52;;;;;;;1999.90;999.90;;;15.00;99.90;;;;;;5046063;28;20079;-71
2023/05/05 06:58:18;;;;;;;1999.90;999.90;;;15.00;99.90;;;;;;5049460;28;20090;-71
2023/05/05 07:00:43;;;;;;;1999.90;999.90;;;15.20;99.90;;;;;;5070445;28;20025;-72
2023/05/05 07:03:09;;;;;;;1999.90;999.90;;;15.20;99.90;;;;;;5057390;28;20099;-78
2023/05/05 07:05:35;;;;;;;1999.90;999.90;;;15.00;99.90;;;;;;5067675;28;20042;-79
2023/05/05 07:08:01;;;;;;;1999.90;999.90;;;15.10;99.90;;;;;;5053276;28;20029;-71
2023/05/05 07:10:27;;;;;;;1999.90;999.90;;;15.00;99.90;;;;;;5033727;28;20044;-71
2023/05/05 07:12:53;;;;;;;1999.90;999.90;;;14.90;99.90;;;;;;5053120;28;20096;-79
2023/05/05 07:15:20;;;;;;;1999.90;999.90;;;15.00;99.90;;;;;;5058951;28;20104;-71
2023/05/05 07:17:46;;;;;;;1999.90;999.90;;;15.00;99.90;;;;;;5033080;28;20112;-71
2023/05/05 07:20:14;;;;;;;1999.90;999.90;;;14.90;99.90;;;;;;5050176;28;20108;-76
2023/05/05 07:22:40;;;;;;;1999.90;999.90;;;14.80;99.90;;;;;;5052738;28;20115;-71
2023/05/05 07:25:06;;;;;;;1999.90;999.90;;;14.80;99.90;;;;;;5052737;28;20108;-71
2023/05/05 07:27:32;;;;;;;1999.90;999.90;;;14.80;99.90;;;;;;5052471;28;20518;-71
2023/05/05 07:29:58;;;;;;;1999.90;999.90;;;14.90;99.90;;;;;;5052700;28;20036;-79
2023/05/05 07:32:24;;;;;;;1999.90;999.90;;;14.90;99.90;;;;;;5052568;28;20033;-79
2023/05/05 07:34:50;;;;;;;1999.90;999.90;;;14.90;99.90;;;;;;5052572;28;20518;-78
2023/05/05 07:37:15;;;;;;;1999.90;999.90;;;14.90;99.90;;;;;;5052662;28;20060;-71
2023/05/05 07:39:41;;;;;;;1999.90;999.90;;;14.90;99.90;;;;;;5034553;28;20101;-72
2023/05/05 07:42:07;;;;;;;1999.90;999.90;;;14.90;99.90;;;;;;5052257;28;20040;-79
2023/05/05 07:44:32;;;;;;;1999.90;999.90;;;14.90;99.90;;;;;;5055870;28;20033;-77
2023/05/05 07:46:58;;;;;;;1999.90;999.90;;;15.00;99.90;;;;;;5033339;28;20127;-77
2023/05/05 07:49:25;;;;;;;1999.90;999.90;;;14.90;99.90;;;;;;5051165;28;20029;-71
2023/05/05 07:51:51;;;;;;;1999.90;999.90;;;15.00;99.90;;;;;;5043935;28;20016;-71
2023/05/05 07:54:17;;;;;;;1999.90;999.90;;;15.10;99.90;;;;;;5050748;28;20463;-80
2023/05/05 07:56:43;;;;;;;1999.90;999.90;;;15.10;99.90;;;;;;5059601;28;20029;-76
2023/05/05 07:59:10;;;;;;;1999.90;999.90;;;15.10;99.90;;;;;;5059698;28;20178;-73
2023/05/05 08:01:36;;;;;;;1999.90;999.90;;;15.20;99.90;;;;;;5041823;28;20130;-73
2023/05/05 08:04:01;;;;;;;1999.90;999.90;;;15.30;99.90;;;;;;5050521;28;20032;-73
2023/05/05 08:06:27;;;;;;;1999.90;999.90;;;15.40;99.90;;;;;;5051056;28;20028;-78
2023/05/05 08:08:54;;;;;;;1999.90;999.90;;;15.50;99.90;;;;;;5049919;28;20507;-77
2023/05/05 08:11:20;;;;;;;1999.90;999.90;;;15.70;99.90;;;;;;5049823;28;20063;-79
2023/05/05 08:13:46;;;;;;;1999.90;999.90;;;15.70;99.90;;;;;;5050695;28;20036;-72
2023/05/05 08:16:12;;;;;;;1999.90;999.90;;;15.70;99.90;;;;;;5050781;28;20021;-73
2023/05/05 08:18:38;;;;;;;1999.90;999.90;;;15.90;99.90;;;;;;5050529;28;20033;-73
2023/05/05 08:21:05;;;;;;;1999.90;999.90;;;16.00;99.90;;;;;;5057381;28;20044;-71
2023/05/05 08:23:31;;;;;;;1999.90;999.90;;;16.00;99.90;;;;;;5064427;28;20122;-79
2023/05/05 08:25:56;;;;;;;1999.90;999.90;;;16.40;99.90;;;;;;5054687;28;20029;-71
2023/05/05 08:28:22;;;;;;;1999.90;999.90;;;16.30;99.90;;;;;;5069361;28;20032;-72
2023/05/05 08:30:48;;;;;;;1999.90;999.90;;;16.20;99.90;;;;;;5051116;28;20103;-72
2023/05/05 08:33:14;;;;;;;1999.90;999.90;;;16.00;99.90;;;;;;5060480;28;20491;-80
2023/05/05 08:35:40;;;;;;;1999.90;999.90;;;15.90;99.90;;;;;;5047466;28;20100;-72
2023/05/05 08:38:06;;;;;;;1999.90;999.90;;;15.90;99.90;;;;;;5050288;28;20061;-80
2023/05/05 08:40:33;;;;;;;1999.90;999.90;;;16.20;99.90;;;;;;5050198;28;20064;-71
2023/05/05 08:43:00;;;;;;;1999.90;999.90;;;16.10;99.90;;;;;;5033913;28;20029;-72
2023/05/05 08:45:27;;;;;;;1999.90;999.90;;;16.10;99.90;;;;;;5043862;28;20033;-72
2023/05/05 08:47:56;;;;;;;1999.90;999.90;;;16.10;99.90;;;;;;5050158;28;20039;-78
2023/05/05 08:50:26;;;;;;;1999.90;999.90;;;16.00;99.90;;;;;;5047318;28;20070;-80
2023/05/05 08:53:00;;;;;;;1999.90;999.90;;;16.20;99.90;;;;;;5043498;28;20563;-80
2023/05/05 08:55:32;;;;;;;1999.90;999.90;;;16.30;99.90;;;;;;5043950;28;20036;-73
2023/05/05 08:58:01;;;;;;;1999.90;999.90;;;16.30;99.90;;;;;;5044423;28;20057;-81
2023/05/05 09:00:27;;;;;;;1999.90;999.90;;;16.60;99.90;;;;;;5044625;28;20037;-72
2023/05/05 09:02:58;;;;;;;1999.90;999.90;;;17.00;99.90;;;;;;5048244;28;20610;-80
2023/05/05 09:05:25;;;;;;;1999.90;999.90;;;17.40;99.90;;;;;;5044761;28;20032;-72
2023/05/05 09:07:51;;;;;;;1999.90;999.90;;;17.40;99.90;;;;;;5050568;28;20155;-73
2023/05/05 09:10:17;;;;;;;1999.90;999.90;;;18.30;99.90;;;;;;5032554;28;20497;-73
2023/05/05 09:12:43;;;;;;;1999.90;999.90;;;19.30;99.90;;;;;;5047988;28;20032;-81
2023/05/05 09:15:10;;;;;;;1999.90;999.90;;;18.90;99.90;;;;;;5047642;28;20025;-81
2023/05/05 09:17:36;;;;;;;1999.90;999.90;;;18.60;99.90;;;;;;5049587;28;20044;-78
2023/05/05 09:20:10;;;;;;;1999.90;999.90;;;21.20;99.90;;;;;;5064003;28;20040;-73
2023/05/05 09:22:44;;;;;;;1999.90;999.90;;;21.00;99.90;;;;;;5048383;28;20068;-72
2023/05/05 09:25:12;;;;;;;1999.90;999.90;;;21.70;99.90;;;;;;5049031;28;20047;-81
2023/05/05 09:27:46;;;;;;;1999.90;999.90;;;21.30;99.90;;;;;;5048515;28;20041;-73
2023/05/05 09:30:23;;;;;;;1999.90;999.90;;;20.90;99.90;;;;;;5047337;28;20013;-73
2023/05/05 09:32:51;;;;;;;1999.90;999.90;;;20.60;99.90;;;;;;5044137;28;20622;-74
2023/05/05 09:35:21;;;;;;;1999.90;999.90;;;21.10;99.90;;;;;;5061256;28;20024;-73
2023/05/05 09:37:46;;;;;;;1999.90;999.90;;;21.70;99.90;;;;;;5068034;28;20428;-81
2023/05/05 09:40:13;;;;;;;1999.90;999.90;;;21.70;99.90;;;;;;5049408;28;20037;-81
2023/05/05 09:42:40;;;;;;;1999.90;999.90;;;22.00;99.90;;;;;;5053131;28;20411;-81
2023/05/05 09:45:17;;;;;;;1999.90;999.90;;;21.60;99.90;;;;;;5048785;28;20037;-81
2023/05/05 09:47:44;;;;;;;1999.90;999.90;;;21.50;99.90;;;;;;5046559;28;20068;-73
2023/05/05 09:50:14;;;;;;;1999.90;999.90;;;20.60;99.90;;;;;;5048883;28;20021;-74
2023/05/05 09:52:40;;;;;;;1999.90;999.90;;;20.70;99.90;;;;;;5031490;28;20820;-82
2023/05/05 09:55:16;;;;;;;1999.90;999.90;;;21.30;99.90;;;;;;5050787;28;20086;-81
2023/05/05 09:57:42;;;;;;;1999.90;999.90;;;21.40;99.90;;;;;;5054960;28;20091;-82
2023/05/05 10:00:09;;;;;;;1999.90;999.90;;;22.20;99.90;;;;;;5048938;28;20506;-74
2023/05/05 10:02:37;;;;;;;1999.90;999.90;;;22.70;99.90;;;;;;5048666;28;20053;-82
2023/05/05 10:05:10;;;;;;;1999.90;999.90;;;22.70;99.90;;;;;;5048445;28;20118;-82
2023/05/05 10:07:36;;;;;;;1999.90;999.90;;;21.90;99.90;;;;;;5050359;28;20037;-81
2023/05/05 10:10:09;;;;;;;1999.90;999.90;;;21.70;99.90;;;;;;5051298;28;20380;-79
2023/05/05 10:12:35;;;;;;;;;;;20.80;99.90;;;;;;5020562;28;20060;-74
2023/05/05 10:15:03;;;;;;;1999.90;999.90;;;20.40;99.90;;;;;;5059112;28;19912;-74
2023/05/05 10:17:34;;;;;;;1999.90;999.90;;;20.40;99.90;;;;;;5069200;28;20021;-82
2023/05/05 10:20:03;;;;;;;1999.90;999.90;;;20.90;99.90;;;;;;5034793;28;20037;-82
2023/05/05 10:22:33;;;;;;;1999.90;999.90;;;21.50;99.90;;;;;;5038926;28;20769;-82
2023/05/05 10:25:09;;;;;;;1999.90;999.90;;;20.50;99.90;;;;;;5033617;28;20479;-75
2023/05/05 10:27:43;;;;;;;1999.90;999.90;;;20.20;99.90;;;;;;5054548;28;20119;-74
2023/05/05 10:30:15;;;;;;;1999.90;999.90;;;20.90;99.90;;;;;;5072762;28;20024;-73
2023/05/05 10:33:14;;;;;;;1999.90;999.90;;;21.40;99.90;;;;;;5056231;28;20077;-81
2023/05/05 10:35:42;;;;;;;1999.90;999.90;;;20.90;99.90;;;;;;5065480;28;20522;-74
2023/05/05 10:38:10;;;;;;;1999.90;999.90;;;20.00;99.90;;;;;;5052542;28;20029;-73
2023/05/05 10:40:35;;;;;;;1999.90;999.90;;;19.70;99.90;;;;;;5052362;28;20033;-73
2023/05/05 10:43:01;;;;;;;1999.90;999.90;;;19.90;99.90;;;;;;5041850;28;20396;-80
2023/05/05 10:45:27;;;;;;;1999.90;999.90;;;19.70;99.90;;;;;;5042322;28;20036;-80
2023/05/05 10:47:55;;;;;;;1999.90;999.90;;;19.40;99.90;;;;;;5055486;28;20036;-81
2023/05/05 10:50:54;;;;;;;1999.90;999.90;;;19.00;99.90;;;;;;5052848;28;20036;-73
2023/05/05 10:53:31;;;;;;;1999.90;999.90;;;18.90;99.90;;;;;;5063149;28;20535;-73
2023/05/05 10:56:20;;;;;;;1999.90;999.90;;;19.40;99.90;;;;;;5054438;28;20029;-81
2023/05/05 10:58:46;;;;;;;1999.90;999.90;;;20.40;99.90;;;;;;5053493;28;20056;-81
2023/05/05 11:01:36;;;;;;;1999.90;999.90;;;20.60;99.90;;;;;;5050155;28;20491;-73
2023/05/05 11:04:20;;;;;;;1999.90;999.90;;;20.10;99.90;;;;;;5041123;28;20052;-73
2023/05/05 11:07:08;;;;;;;1999.90;999.90;;;19.80;99.90;;;;;;5071617;28;20039;-75
2023/05/05 11:09:41;;;;;;;1999.90;999.90;;;20.10;99.90;;;;;;5054099;28;20033;-73
2023/05/05 11:12:07;;;;;;;1999.90;999.90;;;21.00;99.90;;;;;;5052579;28;20112;-74
2023/05/05 11:14:33;;;;;;;1999.90;999.90;;;20.40;99.90;;;;;;5061166;28;20060;-81
2023/05/05 11:17:00;;;;;;;1999.90;999.90;;;21.00;99.90;;;;;;5045549;28;20115;-73
2023/05/05 11:19:45;;;;;;;1999.90;999.90;;;20.40;99.90;;;;;;5072902;28;20033;-72
2023/05/05 11:22:11;;;;;;;1999.90;999.90;;;20.60;99.90;;;;;;5053290;28;20021;-80
2023/05/05 11:24:38;;;;;;;1999.90;999.90;;;21.00;99.90;;;;;;5061890;28;20040;-82
2023/05/05 11:27:05;;;;;;;1999.90;999.90;;;21.60;99.90;;;;;;5063631;28;20028;-81
2023/05/05 11:30:05;;;;;;;1999.90;999.90;;;20.60;99.90;;;;;;5071215;28;20024;-73
2023/05/05 11:32:32;;;;;;;1999.90;999.90;;;21.80;99.90;;;;;;5072209;28;20024;-73
2023/05/05 11:34:59;;;;;;;1999.90;999.90;;;22.30;99.90;;;;;;5072573;28;20028;-82
2023/05/05 11:37:27;;;;;;;1999.90;999.90;;;22.00;99.90;;;;;;5041425;28;20488;-81
2023/05/05 11:40:21;;;;;;;1999.90;999.90;;;21.80;99.90;;;;;;5052804;28;20033;-82
2023/05/05 11:42:47;;;;;;;1999.90;999.90;;;22.00;99.90;;;;;;5053368;28;20104;-73
2023/05/05 11:45:20;;;;;;;1999.90;999.90;;;22.30;99.90;;;;;;5051724;28;20197;-73
2023/05/05 11:47:46;;;;;;;1999.90;999.90;;;21.90;99.90;;;;;;5055809;28;20064;-81
2023/05/05 11:50:16;;;;;;;1999.90;999.90;;;22.60;99.90;;;;;;5046647;28;20051;-81
2023/05/05 11:52:41;;;;;;;1999.90;999.90;;;22.20;99.90;;;;;;5044244;28;20045;-82
2023/05/05 11:55:07;;;;;;;1999.90;999.90;;;22.30;99.90;;;;;;5068512;28;20032;-82
2023/05/05 11:57:33;;;;;;;1999.90;999.90;;;22.00;99.90;;;;;;5070094;28;20036;-73
2023/05/05 12:00:01;;;;;;;1999.90;999.90;;;22.40;99.90;;;;;;5053032;28;20102;-82
2023/05/05 12:02:30;;;;;;;1999.90;999.90;;;22.90;99.90;;;;;;5060935;28;20399;-83
2023/05/05 12:04:57;;;;;;;1999.90;999.90;;;22.20;99.90;;;;;;5053421;28;20043;-82